Time;durP1;ratioP1;P1;durP2;ratioP2;P2;SDS_P1;SDS_P2;PMS_P1;PMS_P2;Temp;Humidity;BMP_temperature;BMP_pressure;BME280_temperature;BME280_humidity;BME280_pressure;Samples;Min_cycle;Max_cycle;Signal;HPM_P1;HPM_P2
2022/12/26 00:01:22;;;;;;;3.93;3.53;;;;;;;9.42;99.60;153779.22;4996168;28;20532;-78
2022/12/26 00:04:08;;;;;;;3.30;3.00;;;;;;;9.42;99.37;153779.22;4991111;28;20457;-78
2022/12/26 00:06:54;;;;;;;4.17;3.50;;;;;;;9.42;99.11;153777.91;4989781;28;20572;-78
2022/12/26 00:09:40;;;;;;;4.97;3.20;;;;;;;9.50;98.46;153798.59;4993572;28;20456;-79
2022/12/26 00:12:29;;;;;;;3.43;3.10;;;;;;;9.46;98.32;153789.53;5009039;28;20471;-78
2022/12/26 00:15:14;;;;;;;3.87;3.10;;;;;;;9.40;98.54;153774.00;4986177;28;20465;-78
2022/12/26 00:17:59;;;;;;;4.83;3.70;;;;;;;9.39;98.92;153770.13;4990895;28;20596;-78
2022/12/26 00:20:45;;;;;;;5.13;3.70;;;;;;;9.36;99.06;153763.66;4998517;28;20450;-78
2022/12/26 00:23:31;;;;;;;3.90;3.30;;;;;;;9.32;99.68;153753.31;4989632;28;20469;-78
2022/12/26 00:26:19;;;;;;;6.30;4.77;;;;;;;9.41;98.47;153775.31;4977383;28;20449;-78
2022/12/26 00:29:05;;;;;;;3.80;3.33;;;;;;;9.48;98.88;153793.41;4988587;28;20453;-78
2022/12/26 00:31:50;;;;;;;3.80;3.10;;;;;;;9.44;98.85;153784.38;4991175;28;20804;-78
2022/12/26 00:34:36;;;;;;;5.03;3.33;;;;;;;9.39;98.82;153771.44;4990557;28;20489;-78
2022/12/26 00:37:21;;;;;;;4.00;3.60;;;;;;;9.34;99.13;153758.50;4989566;28;20425;-78
2022/12/26 00:40:08;;;;;;;4.40;3.87;;;;;;;9.29;99.66;153744.28;4989867;28;20458;-79
2022/12/26 00:42:55;;;;;;;3.87;3.47;;;;;;;9.26;100.00;153737.81;4990222;28;20443;-78
2022/12/26 00:45:44;;;;;;;3.93;3.40;;;;;;;9.25;100.00;153735.22;5001845;28;20453;-78
2022/12/26 00:48:30;;;;;;;4.80;3.40;;;;;;;9.29;99.77;153744.28;4991192;28;20823;-78
2022/12/26 00:51:15;;;;;;;5.67;3.37;;;;;;;9.27;99.98;153740.38;4980562;28;21006;-78
2022/12/26 00:54:00;;;;;;;3.80;3.33;;;;;;;9.29;100.00;153744.28;4989678;28;20513;-78
2022/12/26 00:56:46;;;;;;;3.77;3.00;;;;;;;9.30;99.76;153748.13;4991342;28;20922;-78
2022/12/26 00:59:32;;;;;;;3.83;3.30;;;;;;;9.31;100.00;153750.75;4991347;28;20574;-78
2022/12/26 01:05:21;;;;;;;3.20;2.70;;;;;;;9.31;100.00;153750.75;5004588;28;20914;-78
2022/12/26 01:08:06;;;;;;;3.90;3.43;;;;;;;9.32;100.00;153753.31;4987184;28;20451;-78
2022/12/26 01:10:52;;;;;;;3.70;3.10;;;;;;;9.30;100.00;153748.13;4996473;28;20437;-78
2022/12/26 01:13:38;;;;;;;4.73;3.30;;;;;;;9.26;100.00;153737.81;5004813;28;20788;-78
2022/12/26 01:16:25;;;;;;;3.90;3.23;;;;;;;9.25;100.00;153733.91;4972713;28;20415;-78
2022/12/26 01:19:10;;;;;;;3.17;2.87;;;;;;;9.25;100.00;153733.91;4989738;28;20462;-78
2022/12/26 01:21:55;;;;;;;3.30;3.00;;;;;;;9.31;100.00;153750.75;4988066;28;20451;-79
2022/12/26 01:24:41;;;;;;;4.00;3.10;;;;;;;9.30;100.00;153746.84;4979215;28;20455;-79
2022/12/26 01:27:26;;;;;;;3.40;2.80;;;;;;;9.28;100.00;153741.69;4989919;28;20504;-79
2022/12/26 01:30:12;;;;;;;4.17;3.30;;;;;;;9.27;100.00;153740.38;4992437;28;20750;-79
2022/12/26 01:32:59;;;;;;;3.30;2.80;;;;;;;9.28;100.00;153742.97;5012822;28;20487;-79
2022/12/26 01:35:52;;;;;;;3.53;3.13;;;;;;;9.26;100.00;153737.81;4996966;28;20446;-79
2022/12/26 01:38:37;;;;;;;4.93;3.20;;;;;;;9.24;100.00;153732.59;4996072;28;20927;-79
2022/12/26 01:41:22;;;;;;;3.57;2.67;;;;;;;9.22;100.00;153727.44;5002885;28;20425;-79
2022/12/26 01:44:41;;;;;;;3.33;2.90;;;;;;;9.22;100.00;153727.44;5005790;28;20441;-79
2022/12/26 01:47:36;;;;;;;5.50;3.50;;;;;;;9.23;100.00;153728.75;4991865;28;20458;-79
2022/12/26 01:50:35;;;;;;;3.03;2.73;;;;;;;9.25;100.00;153735.22;5002136;28;20785;-79
2022/12/26 01:53:23;;;;;;;3.23;2.80;;;;;;;9.27;100.00;153740.38;4999489;28;20474;-79
2022/12/26 01:56:11;;;;;;;4.60;3.40;;;;;;;9.27;100.00;153739.06;4992341;28;20458;-79
2022/12/26 01:59:01;;;;;;;3.80;3.03;;;;;;;9.30;100.00;153748.13;4984961;28;20442;-79
2022/12/26 02:01:47;;;;;;;3.07;2.77;;;;;;;9.26;100.00;153737.81;4995903;28;20430;-78
2022/12/26 02:07:44;;;;;;;4.47;2.97;;;;;;;9.27;100.00;153740.38;4991757;28;20509;-79
2022/12/26 02:10:32;;;;;;;4.10;3.10;;;;;;;9.28;100.00;153742.97;4989780;28;20489;-78
2022/12/26 02:13:18;;;;;;;3.73;2.77;;;;;;;9.29;100.00;153745.59;4992880;28;20481;-79
2022/12/26 02:16:04;;;;;;;3.20;2.90;;;;;;;9.31;100.00;153750.75;4992597;28;20921;-79
2022/12/26 02:18:49;;;;;;;3.80;3.20;;;;;;;9.33;100.00;153754.59;4990770;28;20457;-79
2022/12/26 02:21:53;;;;;;;3.43;2.90;;;;;;;9.31;100.00;153750.75;4987854;28;20449;-79
2022/12/26 02:24:58;;;;;;;3.70;3.00;;;;;;;9.33;100.00;153754.59;4992161;28;20444;-79
2022/12/26 02:28:18;;;;;;;3.30;2.70;;;;;;;9.30;100.00;153746.84;4993322;28;20441;-79
2022/12/26 02:31:10;;;;;;;3.13;2.83;;;;;;;9.31;100.00;153750.75;4984627;28;20803;-79
2022/12/26 02:34:02;;;;;;;4.10;3.10;;;;;;;9.30;100.00;153748.13;4984010;28;21109;-79
2022/12/26 02:36:58;;;;;;;3.23;2.70;;;;;;;9.32;100.00;153752.03;4994911;28;20445;-79
2022/12/26 02:39:56;;;;;;;3.70;2.57;;;;;;;9.29;100.00;153744.28;4986256;28;20445;-79
2022/12/26 02:42:49;;;;;;;4.47;2.93;;;;;;;9.29;100.00;153745.59;4995021;28;20437;-79
2022/12/26 02:48:47;;;;;;;3.50;3.20;;;;;;;9.28;100.00;153742.97;4985487;28;20470;-79
2022/12/26 03:13:29;;;;;;;3.90;3.10;;;;;;;9.42;100.00;153777.91;5006778;28;20476;-79
2022/12/26 03:19:20;;;;;;;4.70;3.13;;;;;;;9.40;100.00;153772.75;4998060;28;20496;-79
2022/12/26 03:22:29;;;;;;;4.00;3.50;;;;;;;9.36;100.00;153762.38;5003728;28;20445;-79
2022/12/26 03:28:18;;;;;;;3.80;3.00;;;;;;;9.34;100.00;153758.50;4989809;28;20466;-79
2022/12/26 03:31:06;;;;;;;2.73;2.27;;;;;;;9.36;100.00;153763.66;4992383;28;20582;-79
2022/12/26 03:37:01;;;;;;;3.60;3.20;;;;;;;9.33;100.00;153755.91;4974992;28;20430;-79
2022/12/26 04:20:49;;;;;;;4.23;2.97;;;;;;;9.39;100.00;153770.13;5013161;28;20449;-79
2022/12/26 04:45:15;;;;;;;3.50;2.50;;;;;;;9.62;100.00;153830.94;4989727;28;20822;-79
2022/12/26 04:51:04;;;;;;;4.23;2.40;;;;;;;9.68;100.00;153846.47;4991193;28;20443;-79
2022/12/26 04:53:49;;;;;;;3.77;2.80;;;;;;;9.74;100.00;153860.72;4990986;28;20498;-79
2022/12/26 04:56:36;;;;;;;2.83;2.53;;;;;;;9.72;100.00;153856.81;4992538;28;20503;-79
2022/12/26 04:59:22;;;;;;;4.03;2.60;;;;;;;9.72;100.00;153856.81;4994943;28;20533;-79
2022/12/26 05:11:25;;;;;;;3.30;3.00;;;;;;;9.76;100.00;153867.19;4997500;28;20580;-79
2022/12/26 05:14:12;;;;;;;3.23;2.60;;;;;;;9.80;100.00;153877.50;4996225;28;20442;-79
2022/12/26 05:29:28;;;;;;;3.10;2.60;;;;;;;9.84;99.90;153885.28;4995584;28;20478;-79
2022/12/26 05:32:23;;;;;;;;;;;;;;;;;;;;;
2022/12/26 05:35:09;;;;;;;2.80;2.17;;;;;;;9.76;100.00;153867.19;4947963;28;20539;-79
2022/12/26 05:37:55;;;;;;;2.70;2.40;;;;;;;9.75;100.00;153863.28;4998858;28;20439;-79
2022/12/26 05:40:40;;;;;;;3.50;2.30;;;;;;;9.76;100.00;153867.19;5000851;28;20593;-79
2022/12/26 05:43:26;;;;;;;3.70;2.60;;;;;;;9.78;100.00;153872.34;4994805;28;20524;-79
2022/12/26 05:46:13;;;;;;;2.90;2.40;;;;;;;9.77;100.00;153869.75;4995917;28;20465;-79
2022/12/26 05:48:58;;;;;;;4.13;2.90;;;;;;;9.82;100.00;153882.69;4992646;28;20461;-79
2022/12/26 05:51:43;;;;;;;3.30;2.60;;;;;;;9.87;99.87;153894.34;4994728;28;20430;-79
2022/12/26 05:54:28;;;;;;;2.60;2.40;;;;;;;9.92;99.59;153906.00;5004996;28;20457;-79
2022/12/26 05:57:14;;;;;;;2.80;2.10;;;;;;;9.95;100.00;153913.75;5008292;28;20505;-79
2022/12/26 05:59:59;;;;;;;2.63;2.37;;;;;;;9.91;100.00;153903.38;4994632;28;20453;-79
2022/12/26 06:02:46;;;;;;;2.63;2.33;;;;;;;9.88;100.00;153896.91;4995479;28;20438;-79
2022/12/26 06:05:31;;;;;;;5.57;2.53;;;;;;;9.89;100.00;153899.53;4994568;28;20425;-80
2022/12/26 06:08:17;;;;;;;2.87;2.57;;;;;;;9.89;100.00;153898.22;5004544;28;20962;-79
2022/12/26 06:11:06;;;;;;;2.53;2.33;;;;;;;9.90;100.00;153902.06;5001918;28;20575;-79
2022/12/26 06:13:52;;;;;;;3.60;2.70;;;;;;;9.90;100.00;153900.81;4992157;28;20477;-79
2022/12/26 06:16:37;;;;;;;3.30;2.60;;;;;;;9.90;100.00;153900.81;4994283;28;20432;-79
2022/12/26 06:19:23;;;;;;;3.10;2.37;;;;;;;9.90;100.00;153902.06;4993882;28;20541;-79
2022/12/26 06:22:09;;;;;;;4.70;2.53;;;;;;;9.87;100.00;153893.06;4994253;28;20442;-79
2022/12/26 06:24:55;;;;;;;2.97;2.40;;;;;;;9.84;100.00;153885.28;4993673;28;20486;-79
2022/12/26 06:27:43;;;;;;;2.70;2.30;;;;;;;9.90;100.00;153900.81;4993704;28;20433;-79
2022/12/26 06:30:28;;;;;;;2.70;2.20;;;;;;;9.88;100.00;153896.91;4989751;28;20564;-79
2022/12/26 06:33:13;;;;;;;3.37;3.07;;;;;;;9.89;100.00;153898.22;4992853;28;20473;-79
2022/12/26 06:36:07;;;;;;;2.60;2.40;;;;;;;9.90;100.00;153900.81;4994410;28;20426;-79
2022/12/26 06:38:53;;;;;;;2.47;2.27;;;;;;;9.96;100.00;153916.31;4993227;28;20469;-79
2022/12/26 06:41:40;;;;;;;2.53;2.27;;;;;;;9.95;100.00;153913.75;4990169;28;20577;-79
2022/12/26 06:44:26;;;;;;;6.23;3.20;;;;;;;10.01;100.00;153929.25;4988097;28;20933;-79
2022/12/26 06:47:19;;;;;;;3.63;2.90;;;;;;;9.99;100.00;153924.09;4993500;28;21039;-79
2022/12/26 06:50:13;;;;;;;4.30;2.37;;;;;;;9.99;100.00;153924.09;4986461;28;20829;-79
2022/12/26 06:52:59;;;;;;;4.70;2.80;;;;;;;10.01;99.62;153930.56;4991660;28;20474;-79
2022/12/26 06:55:45;;;;;;;3.63;2.87;;;;;;;10.03;99.90;153935.78;4992250;28;20472;-79
2022/12/26 06:58:30;;;;;;;3.57;2.70;;;;;;;10.05;100.00;153939.63;4999047;28;20473;-79
2022/12/26 07:01:18;;;;;;;2.87;2.37;;;;;;;10.05;99.69;153939.63;4979824;28;20969;-79
2022/12/26 07:04:04;;;;;;;2.80;2.43;;;;;;;10.07;99.98;153944.81;4999724;28;20544;-79
2022/12/26 07:06:49;;;;;;;2.83;2.40;;;;;;;10.05;100.00;153939.63;4993356;28;20779;-79
2022/12/26 07:09:37;;;;;;;3.17;2.37;;;;;;;10.03;100.00;153934.47;4989843;28;20496;-79
2022/12/26 07:12:23;;;;;;;4.03;2.40;;;;;;;10.05;100.00;153940.94;4987207;28;20455;-79
2022/12/26 07:15:10;;;;;;;2.73;2.37;;;;;;;10.01;100.00;153929.25;4994339;28;20439;-79
2022/12/26 07:17:56;;;;;;;2.63;2.13;;;;;;;10.01;99.84;153929.25;4990378;28;20934;-79
2022/12/26 07:20:45;;;;;;;3.33;2.90;;;;;;;10.01;100.00;153930.56;4992934;28;20441;-79
2022/12/26 07:23:33;;;;;;;3.47;2.50;;;;;;;10.01;100.00;153930.56;4981670;28;20498;-79
2022/12/26 07:26:21;;;;;;;4.00;3.03;;;;;;;10.01;100.00;153930.56;4984675;28;21062;-79
2022/12/26 07:29:06;;;;;;;3.40;2.53;;;;;;;9.99;100.00;153925.38;4985603;28;20524;-79
2022/12/26 07:31:52;;;;;;;4.17;2.70;;;;;;;10.01;100.00;153929.25;4982595;28;20442;-79
2022/12/26 07:34:37;;;;;;;2.23;2.00;;;;;;;10.01;100.00;153929.25;4990533;28;21003;-79
2022/12/26 07:37:23;;;;;;;3.60;3.30;;;;;;;10.07;100.00;153944.81;4994823;28;20895;-79
2022/12/26 07:40:09;;;;;;;4.10;2.93;;;;;;;10.04;99.97;153937.03;4988020;28;20462;-79
2022/12/26 07:42:56;;;;;;;3.40;2.60;;;;;;;10.04;99.81;153938.34;4990542;28;20940;-79
2022/12/26 07:45:41;;;;;;;2.80;2.40;;;;;;;10.05;99.74;153940.94;4992335;28;20411;-79
2022/12/26 07:48:30;;;;;;;3.43;2.77;;;;;;;10.07;99.53;153946.09;4993059;28;20500;-79
2022/12/26 07:51:15;;;;;;;3.73;3.10;;;;;;;10.07;100.00;153944.81;4984719;28;20823;-79
2022/12/26 07:54:01;;;;;;;3.20;2.90;;;;;;;10.02;100.00;153933.16;5003963;28;20942;-79
2022/12/26 07:56:47;;;;;;;4.93;2.70;;;;;;;10.05;100.00;153939.63;4979041;28;20450;-79
2022/12/26 07:59:38;;;;;;;4.77;3.10;;;;;;;10.09;100.00;153949.97;4997244;28;20469;-79
2022/12/26 08:02:26;;;;;;;4.00;3.20;;;;;;;10.03;100.00;153934.47;5000340;28;20455;-79
2022/12/26 08:05:29;;;;;;;2.77;2.47;;;;;;;10.04;100.00;153937.03;4987716;28;20530;-79
2022/12/26 08:08:15;;;;;;;5.33;2.73;;;;;;;10.02;100.00;153931.88;4987297;28;20502;-79
2022/12/26 08:11:00;;;;;;;3.27;2.87;;;;;;;10.01;100.00;153929.25;4987517;28;20449;-79
2022/12/26 08:13:46;;;;;;;3.83;3.43;;;;;;;9.99;100.00;153925.38;4997100;28;20474;-80
2022/12/26 08:16:33;;;;;;;3.33;2.93;;;;;;;9.98;100.00;153921.53;5002315;28;20456;-79
2022/12/26 08:19:18;;;;;;;4.23;3.27;;;;;;;9.97;100.00;153920.22;5003184;28;20804;-79
2022/12/26 08:22:03;;;;;;;4.70;2.90;;;;;;;9.94;100.00;153912.47;5002772;28;20453;-79
2022/12/26 08:24:49;;;;;;;5.00;4.43;;;;;;;9.92;100.00;153906.00;4988817;28;20499;-79
2022/12/26 08:27:34;;;;;;;6.03;3.90;;;;;;;9.88;100.00;153895.59;4983703;28;20462;-79
2022/12/26 08:30:19;;;;;;;3.83;3.10;;;;;;;9.88;100.00;153895.59;4984064;28;20446;-79
2022/12/26 08:33:07;;;;;;;4.90;4.30;;;;;;;9.86;100.00;153891.75;4992326;28;20824;-79
2022/12/26 08:35:52;;;;;;;4.40;4.00;;;;;;;9.87;100.00;153893.06;4991117;28;20470;-79
2022/12/26 08:38:37;;;;;;;4.80;3.40;;;;;;;9.86;100.00;153890.44;4978552;28;20532;-79
2022/12/26 08:41:23;;;;;;;5.93;3.97;;;;;;;9.86;100.00;153890.44;4990072;28;20822;-79
2022/12/26 08:44:10;;;;;;;4.27;3.57;;;;;;;9.85;100.00;153887.88;4989714;28;20458;-79
2022/12/26 08:46:55;;;;;;;3.67;3.30;;;;;;;9.85;100.00;153887.88;5004578;28;20456;-79
2022/12/26 08:49:43;;;;;;;4.53;4.03;;;;;;;9.86;100.00;153890.44;4991998;28;20524;-79
2022/12/26 08:52:28;;;;;;;6.00;3.50;;;;;;;9.84;100.00;153886.59;4995922;28;20430;-79
2022/12/26 08:55:13;;;;;;;3.97;3.43;;;;;;;9.84;100.00;153885.28;4991530;28;20961;-79
2022/12/26 08:57:59;;;;;;;5.50;3.70;;;;;;;9.84;100.00;153885.28;4989514;28;20590;-79
2022/12/26 09:00:44;;;;;;;4.37;3.40;;;;;;;9.82;100.00;153880.13;4991589;28;20513;-79
2022/12/26 09:03:30;;;;;;;5.40;4.20;;;;;;;9.76;100.00;153867.19;4990501;28;20581;-79
2022/12/26 09:06:16;;;;;;;4.70;3.70;;;;;;;9.75;100.00;153863.28;4978617;28;21944;-79
2022/12/26 09:09:02;;;;;;;4.70;4.13;;;;;;;9.72;100.00;153856.81;4994651;28;20967;-79
2022/12/26 09:11:47;;;;;;;5.97;5.37;;;;;;;9.69;100.00;153847.72;4989635;28;20476;-79
2022/12/26 09:14:33;;;;;;;6.30;5.70;;;;;;;9.67;100.00;153843.88;4989438;28;20485;-79
2022/12/26 09:17:18;;;;;;;6.20;5.20;;;;;;;9.68;100.00;153846.47;4989539;28;21144;-79
2022/12/26 09:20:04;;;;;;;6.63;4.97;;;;;;;9.67;100.00;153842.56;5003419;28;20453;-79
2022/12/26 09:22:50;;;;;;;4.70;4.30;;;;;;;9.66;100.00;153841.25;4991559;28;20585;-79
2022/12/26 09:25:36;;;;;;;5.50;4.17;;;;;;;9.69;100.00;153847.72;4988020;28;20449;-79
2022/12/26 09:28:21;;;;;;;6.50;4.20;;;;;;;9.71;100.00;153854.25;4988975;28;20587;-79
2022/12/26 09:31:08;;;;;;;4.93;4.30;;;;;;;9.73;100.00;153859.41;4990960;28;20783;-79
2022/12/26 09:33:53;;;;;;;5.43;3.90;;;;;;;9.77;100.00;153868.44;4995307;28;20698;-79
2022/12/26 09:36:39;;;;;;;5.67;3.93;;;;;;;9.80;100.00;153877.50;4991574;28;20787;-79
2022/12/26 09:39:26;;;;;;;4.93;3.80;;;;;;;9.82;100.00;153882.69;4980306;28;20457;-79
2022/12/26 09:42:19;;;;;;;4.47;3.70;;;;;;;9.85;100.00;153887.88;4986330;28;20446;-79
2022/12/26 09:45:11;;;;;;;4.53;3.43;;;;;;;9.86;100.00;153890.44;4990714;28;20449;-79
2022/12/26 09:48:04;;;;;;;5.20;3.70;;;;;;;9.89;100.00;153898.22;4987326;28;20924;-79
2022/12/26 09:50:51;;;;;;;4.33;3.53;;;;;;;9.89;100.00;153898.22;4991301;28;20950;-79
2022/12/26 09:53:42;;;;;;;6.77;5.10;;;;;;;9.90;100.00;153900.81;4999174;28;20579;-79
2022/12/26 09:56:30;;;;;;;4.20;3.57;;;;;;;9.89;100.00;153898.22;4992087;28;20469;-79
2022/12/26 09:59:18;;;;;;;5.50;4.40;;;;;;;9.90;100.00;153900.81;4995098;28;20437;-79
2022/12/26 10:02:04;;;;;;;5.50;4.40;;;;;;;9.90;100.00;153902.06;4990268;28;20586;-80
2022/12/26 10:04:49;;;;;;;5.00;4.30;;;;;;;9.90;100.00;153900.81;4995879;28;20457;-79
2022/12/26 10:07:40;;;;;;;6.77;4.93;;;;;;;9.87;100.00;153894.34;4997899;28;20453;-79
2022/12/26 10:10:29;;;;;;;6.80;4.00;;;;;;;9.88;100.00;153896.91;4996767;28;20935;-79
2022/12/26 10:13:20;;;;;;;5.53;4.20;;;;;;;9.85;100.00;153887.88;4998884;28;20804;-79
2022/12/26 10:16:09;;;;;;;5.37;4.10;;;;;;;9.84;100.00;153885.28;4987450;28;20855;-79
2022/12/26 10:19:00;;;;;;;5.30;4.40;;;;;;;9.82;100.00;153881.41;4992898;28;20466;-79
2022/12/26 10:21:50;;;;;;;6.10;4.70;;;;;;;9.82;100.00;153882.69;4986184;28;20433;-79
2022/12/26 10:24:37;;;;;;;5.87;4.00;;;;;;;9.82;100.00;153882.69;4988235;28;20586;-79
2022/12/26 10:27:24;;;;;;;4.60;3.87;;;;;;;9.83;100.00;153883.97;4989748;28;20500;-78
2022/12/26 10:30:26;;;;;;;5.20;3.90;;;;;;;9.84;100.00;153885.28;5001379;28;20451;-80
2022/12/26 10:33:16;;;;;;;4.50;3.97;;;;;;;9.86;100.00;153890.44;4986061;28;20887;-78
2022/12/26 10:36:02;;;;;;;4.23;3.83;;;;;;;9.86;100.00;153890.44;4992732;28;20525;-80
2022/12/26 10:38:50;;;;;;;4.93;4.43;;;;;;;9.85;100.00;153889.16;4990011;28;20827;-80
2022/12/26 10:41:40;;;;;;;5.20;4.70;;;;;;;9.87;100.00;153893.06;4994233;28;20525;-80
2022/12/26 10:44:26;;;;;;;5.30;4.47;;;;;;;9.85;100.00;153889.16;4980439;28;20442;-80
2022/12/26 10:47:25;;;;;;;5.10;4.60;;;;;;;9.88;100.00;153895.59;4995548;28;20469;-80
2022/12/26 10:50:15;;;;;;;9.87;6.73;;;;;;;9.88;100.00;153896.91;4999898;28;20878;-80
2022/12/26 10:53:05;;;;;;;9.30;8.00;;;;;;;9.90;100.00;153900.81;4996769;28;20578;-80
2022/12/26 10:56:14;;;;;;;6.57;5.50;;;;;;;9.88;100.00;153895.59;4996741;28;20770;-80
2022/12/26 10:59:09;;;;;;;4.90;3.70;;;;;;;9.92;100.00;153906.00;4993973;28;21060;-80
2022/12/26 11:01:54;;;;;;;4.43;3.60;;;;;;;9.89;100.00;153899.53;4996043;28;20517;-80
2022/12/26 11:04:57;;;;;;;4.00;3.60;;;;;;;9.91;100.00;153904.69;4989554;28;20451;-80
2022/12/26 11:07:47;;;;;;;9.13;3.77;;;;;;;9.93;100.00;153909.84;4978557;28;21527;-81
2022/12/26 11:10:33;;;;;;;6.30;4.57;;;;;;;9.94;100.00;153912.47;5001774;28;20437;-80
2022/12/26 11:13:21;;;;;;;5.53;5.03;;;;;;;9.96;100.00;153917.63;4994308;28;20442;-80
2022/12/26 11:16:07;;;;;;;6.67;4.20;;;;;;;9.95;100.00;153913.75;4986284;28;20598;-80
2022/12/26 11:18:55;;;;;;;5.20;3.90;;;;;;;9.97;100.00;153918.91;4992421;28;21025;-80
2022/12/26 11:21:42;;;;;;;5.80;4.40;;;;;;;9.98;100.00;153921.53;5000052;28;20426;-80
2022/12/26 11:24:30;;;;;;;6.70;5.40;;;;;;;9.98;100.00;153921.53;4987702;28;20449;-80
2022/12/26 11:27:22;;;;;;;5.77;4.77;;;;;;;10.01;100.00;153929.25;4989114;28;20940;-80
2022/12/26 11:30:26;;;;;;;4.20;2.67;;;;;;;9.99;100.00;153925.38;4994914;28;20561;-80
2022/12/26 11:33:19;;;;;;;4.90;3.87;;;;;;;10.00;100.00;153926.69;4984084;28;21007;-80
2022/12/26 11:36:09;;;;;;;6.40;5.27;;;;;;;10.03;100.00;153934.47;4998099;28;20433;-81
2022/12/26 11:38:57;;;;;;;4.33;3.70;;;;;;;10.07;100.00;153944.81;4993885;28;20438;-80
2022/12/26 11:41:45;;;;;;;4.63;3.53;;;;;;;10.02;100.00;153933.16;4989199;28;20491;-80
2022/12/26 11:44:39;;;;;;;5.60;3.90;;;;;;;10.00;100.00;153928.00;4999109;28;20454;-80
2022/12/26 11:47:27;;;;;;;5.27;4.17;;;;;;;10.03;100.00;153934.47;4991811;28;20574;-80
2022/12/26 11:50:19;;;;;;;5.30;4.20;;;;;;;10.01;100.00;153929.25;4993390;28;20465;-80
2022/12/26 11:53:06;;;;;;;5.00;3.90;;;;;;;10.02;100.00;153933.16;4998831;28;20457;-80
2022/12/26 11:56:00;;;;;;;6.03;5.03;;;;;;;9.99;100.00;153924.09;4991096;28;20462;-80
2022/12/26 11:58:46;;;;;;;5.23;4.10;;;;;;;9.97;100.00;153920.22;4991429;28;20442;-80
2022/12/26 12:01:32;;;;;;;4.87;3.47;;;;;;;9.96;100.00;153916.31;4994515;28;20446;-80
2022/12/26 12:04:17;;;;;;;3.90;3.20;;;;;;;9.97;100.00;153918.91;4996062;28;20446;-80
2022/12/26 12:07:08;;;;;;;7.33;3.20;;;;;;;9.95;100.00;153913.75;4997546;28;20425;-80
2022/12/26 12:09:57;;;;;;;3.37;2.70;;;;;;;9.98;100.00;153922.78;5008089;28;20815;-80
2022/12/26 12:12:48;;;;;;;3.83;3.17;;;;;;;9.99;100.00;153925.38;4998456;28;20431;-80
2022/12/26 12:15:42;;;;;;;2.60;1.80;;;;;;;10.00;100.00;153926.69;4994187;28;20465;-80
2022/12/26 12:18:50;;;;;;;3.37;2.13;;;;;;;10.04;100.00;153937.03;4990995;28;20442;-80
2022/12/26 12:21:43;;;;;;;2.37;1.87;;;;;;;10.08;100.00;153948.72;4992196;28;20755;-80
2022/12/26 12:24:42;;;;;;;2.50;2.00;;;;;;;10.08;100.00;153947.41;4993159;28;20450;-80
2022/12/26 12:27:32;;;;;;;2.93;1.90;;;;;;;10.10;100.00;153952.56;4996240;28;21200;-80
2022/12/26 12:30:20;;;;;;;2.30;1.97;;;;;;;10.09;100.00;153951.25;4986987;28;20807;-80
2022/12/26 12:33:23;;;;;;;2.37;1.87;;;;;;;10.16;100.00;153968.16;4987160;28;20469;-80
2022/12/26 12:36:10;;;;;;;2.80;2.40;;;;;;;10.14;100.00;153963.00;4992735;28;20410;-80
2022/12/26 12:39:02;;;;;;;2.00;1.80;;;;;;;10.18;100.00;153973.34;4992733;28;20789;-79
2022/12/26 12:42:09;;;;;;;2.07;1.60;;;;;;;10.20;100.00;153978.50;4991610;28;20532;-80
2022/12/26 12:45:07;;;;;;;2.37;1.83;;;;;;;10.19;100.00;153975.94;5004974;28;20445;-80
2022/12/26 12:48:03;;;;;;;2.20;1.70;;;;;;;10.17;100.00;153972.03;4989344;28;20585;-80
2022/12/26 12:50:54;;;;;;;4.13;2.10;;;;;;;10.21;100.00;153981.09;4989533;28;20983;-80
2022/12/26 12:53:54;;;;;;;4.13;3.40;;;;;;;10.12;100.00;153957.72;4991405;28;20803;-80
2022/12/26 12:56:45;;;;;;;3.57;2.97;;;;;;;10.16;100.00;153968.16;4997153;28;20498;-80
2022/12/26 12:59:35;;;;;;;5.53;3.53;;;;;;;10.21;100.00;153981.09;4989356;28;20450;-80
2022/12/26 13:02:27;;;;;;;6.77;4.97;;;;;;;10.20;100.00;153978.50;4994807;28;20439;-80
2022/12/26 13:05:20;;;;;;;4.93;3.53;;;;;;;10.14;100.00;153964.25;4994783;28;20453;-80
2022/12/26 13:08:08;;;;;;;6.07;3.40;;;;;;;10.16;100.00;153968.16;4988005;28;20414;-80
2022/12/26 13:10:56;;;;;;;6.97;3.70;;;;;;;10.17;100.00;153972.03;4992196;28;20434;-80
2022/12/26 13:13:44;;;;;;;7.63;4.17;;;;;;;10.18;100.00;153973.34;4989009;28;20737;-80
2022/12/26 13:16:32;;;;;;;5.37;3.47;;;;;;;10.18;100.00;153973.34;4989145;28;20956;-80
2022/12/26 13:19:19;;;;;;;7.47;4.27;;;;;;;10.18;100.00;153973.34;4993392;28;20457;-80
2022/12/26 13:22:11;;;;;;;5.03;3.03;;;;;;;10.16;100.00;153968.16;4993278;28;20454;-80
2022/12/26 13:24:58;;;;;;;7.27;4.60;;;;;;;10.13;100.00;153961.69;4984943;28;20453;-80
2022/12/26 13:27:44;;;;;;;9.03;5.77;;;;;;;10.16;100.00;153969.47;4991363;28;20983;-80
2022/12/26 13:30:30;;;;;;;5.60;3.27;;;;;;;10.11;100.00;153956.44;5012519;28;20454;-80
2022/12/26 13:33:15;;;;;;;3.53;1.93;;;;;;;10.11;100.00;153956.44;4989663;28;20624;-80
2022/12/26 13:36:03;;;;;;;1.70;0.97;;;;;;;10.09;100.00;153951.25;4995400;28;20470;-80
2022/12/26 13:39:20;;;;;;;1.87;1.30;;;;;;;10.10;100.00;153952.56;4995681;28;20883;-80
2022/12/26 13:45:53;;;;;;;3.27;2.83;;;;;;;10.05;100.00;153939.63;4995583;28;20426;-80
2022/12/26 13:49:26;;;;;;;3.80;3.00;;;;;;;10.00;100.00;153928.00;4975416;28;20505;-80
2022/12/26 13:52:32;;;;;;;3.50;2.33;;;;;;;10.06;100.00;153942.25;4999805;28;20790;-80
2022/12/26 13:55:43;;;;;;;3.87;2.67;;;;;;;10.00;100.00;153926.69;4994225;28;20518;-80
2022/12/26 13:58:50;;;;;;;3.17;2.60;;;;;;;10.02;100.00;153931.88;4993552;28;20453;-80
2022/12/26 14:01:40;;;;;;;3.73;2.43;;;;;;;10.07;100.00;153944.81;4998550;28;20771;-80
2022/12/26 14:04:38;;;;;;;1.90;1.40;;;;;;;10.05;100.00;153939.63;4995479;28;20457;-80
2022/12/26 14:07:28;;;;;;;2.87;1.80;;;;;;;9.99;100.00;153924.09;4991979;28;20446;-80
2022/12/26 14:10:18;;;;;;;2.50;1.90;;;;;;;10.02;100.00;153931.88;4994549;28;20922;-79
2022/12/26 14:13:16;;;;;;;2.27;1.60;;;;;;;10.00;100.00;153928.00;4994841;28;20432;-80
2022/12/26 14:16:06;;;;;;;2.47;1.57;;;;;;;9.98;100.00;153921.53;4994089;28;20460;-80
2022/12/26 14:18:55;;;;;;;1.93;1.40;;;;;;;10.00;100.00;153928.00;4992698;28;20449;-79
2022/12/26 14:21:48;;;;;;;1.50;1.30;;;;;;;10.00;100.00;153928.00;4994412;28;20932;-80
2022/12/26 14:24:41;;;;;;;2.07;1.20;;;;;;;9.96;100.00;153916.31;4992211;28;20439;-80
2022/12/26 14:27:33;;;;;;;2.60;1.57;;;;;;;9.92;100.00;153907.28;4998861;28;20802;-80
2022/12/26 14:30:28;;;;;;;3.10;2.20;;;;;;;9.93;100.00;153908.59;4987182;28;20541;-80
2022/12/26 14:33:21;;;;;;;2.50;1.63;;;;;;;9.91;100.00;153904.69;4989656;28;20975;-80
2022/12/26 14:36:19;;;;;;;2.23;1.50;;;;;;;9.91;100.00;153903.38;4999229;28;20837;-79
2022/12/26 14:39:16;;;;;;;1.77;1.33;;;;;;;9.93;100.00;153908.59;4985070;28;20537;-80
2022/12/26 14:45:50;;;;;;;1.87;1.53;;;;;;;9.95;100.00;153915.06;5000701;28;20446;-79
2022/12/26 14:48:50;;;;;;;2.10;1.50;;;;;;;9.91;100.00;153904.69;4991380;28;20782;-79
2022/12/26 14:51:40;;;;;;;1.80;1.20;;;;;;;9.89;100.00;153898.22;4992299;28;20923;-79
2022/12/26 14:54:39;;;;;;;2.43;1.23;;;;;;;9.87;100.00;153894.34;4991961;28;20604;-79
2022/12/26 14:57:47;;;;;;;3.23;2.20;;;;;;;9.86;100.00;153891.75;4987542;28;20470;-79
2022/12/26 15:00:35;;;;;;;3.50;2.10;;;;;;;9.92;100.00;153907.28;4980429;28;20439;-79
2022/12/26 15:03:45;;;;;;;3.33;2.23;;;;;;;9.86;100.00;153890.44;4992026;28;20903;-79
2022/12/26 15:06:51;;;;;;;3.43;2.97;;;;;;;9.82;100.00;153881.41;4990527;28;20492;-79
2022/12/26 15:10:18;;;;;;;2.90;2.30;;;;;;;9.82;100.00;153882.69;5005540;28;20953;-79
2022/12/26 15:13:37;;;;;;;4.00;2.80;;;;;;;9.80;100.00;153877.50;4986908;28;20462;-79
2022/12/26 15:16:58;;;;;;;2.53;2.03;;;;;;;9.75;100.00;153864.56;4981822;28;20468;-79
2022/12/26 15:20:21;;;;;;;2.60;2.00;;;;;;;9.74;100.00;153860.72;4991394;28;20477;-79
2022/12/26 15:23:45;;;;;;;2.20;1.47;;;;;;;9.75;100.00;153864.56;4987310;28;20450;-79
2022/12/26 15:26:56;;;;;;;2.20;1.27;;;;;;;9.71;100.00;153854.25;4987930;28;20451;-79